Nearby METAR Reports

 

KHIF - Hill Afb/Ogden, Utah, USA
Distance from station: ENE 6mi, 9km
Updated: Wed, 18-Oct-2017 8:58pm MDT
Clear
Clear
 Wind from SE
Wind: SE 6 mph , 9 km/h
Temperature: 46°F , 8°C
Wind Chill: 43°F , 6°C
Dew Point: 25°F , -4°C
Humidity: 43%
Barometer: 30.10 inHg , 1019.3 hPa
Clouds: Clear
Visibility: 10 miles , 16 km
2017/10/19 02:58 KHIF 190258Z 14005KT 10SM CLR 08/M04 A3010 RMK AO2A SLP167 T00791036 56007
KOGD - Ogden, Utah, USA
Distance from station: NNE 9mi, 14km
Updated: Wed, 18-Oct-2017 8:53pm MDT
Clear
Clear
 Wind from S
Wind: S 6 mph , 9 km/h
Temperature: 52°F , 11°C
Dew Point: 36°F , 2°C
Humidity: 54%
Barometer: 30.09 inHg , 1019 hPa
Clouds: Clear
Visibility: 10 miles , 16 km
2017/10/19 02:53 KOGD 190253Z AUTO 19005KT 10SM CLR 11/02 A3009 RMK AO2 SLP168 T01110022 56006
 
KSLC - Salt Lake City, Utah, USA
Distance from station: SSE 21mi, 34km
Updated: Wed, 18-Oct-2017 8:54pm MDT
Few Clouds
Few Clouds
 Wind from SE
Wind: SE 3 mph , 6 km/h
Temperature: 55°F , 13°C
Dew Point: 30°F , -1°C
Humidity: 38%
Barometer: 30.09 inHg , 1019 hPa
Clouds: Few Clouds
Visibility: 10 miles , 16 km
Cloud details: Few Clouds 20000 ft
Few Clouds 25000 ft
2017/10/19 02:54 KSLC 190254Z 14003KT 10SM FEW200 FEW250 13/M01 A3009 RMK AO2 SLP170 T01331006 58004 $
KLGU - Logan, Utah, USA
Distance from station: NNE 50mi, 80km
Updated: Wed, 18-Oct-2017 8:51pm MDT
Clear
Clear
 Wind from S
Wind: S 5 mph , 7 km/h
Temperature: 50°F , 10°C
Wind Chill: 48°F , 9°C
Dew Point: 25°F , -4°C
Humidity: 37%
Barometer: 30.10 inHg , 1019.3 hPa
Clouds: Clear
Visibility: 10 miles , 16 km
2017/10/19 02:51 KLGU 190251Z AUTO 18004KT 10SM CLR 10/M04 A3010 RMK AO2 SLP188 T01001039 56004 $
 
K36U - Heber/Russ Mcdon, Utah, USA
Distance from station: SE 53mi, 85km
Updated: Wed, 11-Oct-2017 6:50pm MDT
NOT Current
Clear
Clear
 Wind from SSW
Wind: SSW 10 mph , 17 km/h, Gust: 18 mph , 30 km/h
Temperature: 63°F , 17°C
Dew Point: 16°F , -9°C
Humidity: 16%
Barometer: 29.87 inHg , 1011.5 hPa
Clouds: Clear
Visibility: 10 miles , 16 km
2017/10/12 00:50 K36U 120050Z AUTO 21009G16KT 10SM CLR 17/M09 A2987 RMK AO2
KEVW - Evanston, Wyoming, USA
Distance from station: ENE 55mi, 89km
Updated: Wed, 18-Oct-2017 8:53pm MDT
Clear
Clear
 Wind from SE
Wind: SE 5 mph , 7 km/h
Temperature: 52°F , 11°C
Dew Point: 10°F , -12°C
Humidity: 19%
Barometer: 30.22 inHg , 1023.4 hPa
Clouds: Clear
Visibility: 10 miles , 16 km
2017/10/19 02:53 KEVW 190253Z AUTO 13004KT 10SM CLR 11/M12 A3022 RMK AO2 SLP191 T01111122 56003
 
KPVU - Provo Muni, Utah, USA
Distance from station: SSE 62mi, 100km
Updated: Wed, 18-Oct-2017 8:56pm MDT
Clear
Clear
 Wind from SSW
Wind: SSW 5 mph , 7 km/h
Temperature: 46°F , 8°C
Wind Chill: 44°F , 7°C
Dew Point: 34°F , 1°C
Humidity: 62%
Barometer: 30.11 inHg , 1019.6 hPa
Clouds: Clear
Visibility: 10 miles , 16 km
2017/10/19 02:56 KPVU 190256Z AUTO 21004KT 10SM CLR 08/01 A3011 RMK AO2 SLP190 T00830011 55000
KDPG - Dugway Prvg Grou, Utah, USA
Distance from station: SW 75mi, 121km
Updated: Wed, 18-Oct-2017 1:55pm MDT
NOT Current
Few Clouds
Few Clouds
 Wind from WNW
Wind: WNW 5 mph , 7 km/h
Temperature: 64°F , 18°C
Dew Point: 16°F , -9°C
Humidity: 15%
Barometer: 30.18 inHg , 1022 hPa
Clouds: Few Clouds
Visibility: 10 miles , 16 km
Cloud details: Few Clouds 25000 ft
2017/10/18 19:55 KDPG 181955Z 29004KT 10SM FEW250 18/M09 A3018 RMK SLP201 NOSPECI T01821085
 
KENV - Wendover (aut), Utah, USA
Distance from station: WSW 105mi, 169km
Updated: Wed, 18-Oct-2017 8:56pm MDT
Clear
Clear
 Wind from WSW
Wind: WSW 3 mph , 6 km/h
Temperature: 46°F , 8°C
Dew Point: 21°F , -6°C
Humidity: 37%
Barometer: 30.08 inHg , 1018.6 hPa
Clouds: Clear
Visibility: 10 miles , 16 km
2017/10/19 02:56 KENV 190256Z AUTO 25003KT 10SM CLR 08/M06 A3008 RMK AO2 SLPNO T00781056 58007
KPUC - Price, Utah, USA
Distance from station: SE 123mi, 197km
Updated: Wed, 18-Oct-2017 8:53pm MDT
Clear
Clear
 Wind from NNE
Wind: NNE 12 mph , 19 km/h
Temperature: 50°F , 10°C
Wind Chill: 45°F , 7°C
Dew Point: 10°F , -12°C
Humidity: 20%
Barometer: 30.17 inHg , 1021.7 hPa
Clouds: Clear
Visibility: 10 miles , 16 km
2017/10/19 02:53 KPUC 190253Z AUTO 02010KT 10SM CLR 10/M12 A3017 RMK AO2 SLP204 T01001117 58003
 
KPIH - Pocatello, Idaho, USA
Distance from station: NNW 130mi, 208km
Updated: Wed, 18-Oct-2017 8:53pm MDT
Clear
Clear
 Wind from S
Wind: S 5 mph , 7 km/h
Temperature: 54°F , 12°C
Dew Point: 23°F , -5°C
Humidity: 30%
Barometer: 30.07 inHg , 1018.3 hPa
Clouds: Clear
Visibility: 10 miles , 16 km
2017/10/19 02:53 KPIH 190253Z 19004KT 10SM CLR 12/M05 A3007 RMK AO2 SLP175 T01221050 56004
KBYI - Burley, Idaho, USA
Distance from station: NW 134mi, 216km
Updated: Wed, 18-Oct-2017 9:18pm MDT
Haze, Clear
Haze, Clear
 Wind from S
Wind: S 7 mph , 11 km/h
Temperature: 48°F , 9°C
Wind Chill: 45°F , 7°C
Dew Point: 30°F , -1°C
Humidity: 50%
Barometer: 30.02 inHg , 1016.6 hPa
Summary: Haze
Clouds: Clear
Visibility: 4 miles , 6 km
2017/10/19 03:18 KBYI 190318Z AUTO 19006KT 4SM HZ CLR 09/M01 A3002 RMK AO2 T00891011
 
KVEL - Vernal, Utah, USA
Distance from station: ESE 140mi, 226km
Updated: Wed, 18-Oct-2017 8:53pm MDT
Clear
Clear
 Wind from W
Wind: W 9 mph , 15 km/h
Temperature: 50°F , 10°C
Wind Chill: 46°F , 8°C
Dew Point: 18°F , -8°C
Humidity: 28%
Barometer: 30.14 inHg , 1020.7 hPa
Clouds: Clear
Visibility: 10 miles , 16 km
2017/10/19 02:53 KVEL 190253Z AUTO 28008KT 10SM CLR 10/M08 A3014 RMK AO2 SLP187 T01001078 56003
KBPI - Big Piney, Wyoming, USA
Distance from station: NE 145mi, 234km
Updated: Wed, 18-Oct-2017 8:53pm MDT
Clear
Clear
 Wind from N
Wind: N 10 mph , 17 km/h
Temperature: 37°F , 3°C
Wind Chill: 30°F , -1°C
Dew Point: 16°F , -9°C
Humidity: 41%
Barometer: 30.20 inHg , 1022.7 hPa
Clouds: Clear
Visibility: 10 miles , 16 km
2017/10/19 02:53 KBPI 190253Z AUTO 35009KT 10SM CLR 03/M09 A3020 RMK AO2 SLP212 T00331089 56000